createdAt,value
2022-09-05T00:01:44.063Z,19.64
2022-09-05T00:04:24.538Z,19.69
2022-09-05T00:07:03.550Z,19.38
2022-09-05T00:10:06.288Z,19.57
2022-09-05T00:12:36.910Z,19.52
2022-09-05T00:15:24.601Z,19.47
2022-09-05T00:22:52.650Z,19.45
2022-09-05T00:24:32.277Z,19.43
2022-09-05T00:25:07.212Z,19.34
2022-09-05T00:27:50.792Z,19.32
2022-09-05T00:31:07.140Z,19.11
2022-09-05T00:33:26.090Z,19.31
2022-09-05T00:36:24.403Z,19.12
2022-09-05T00:39:01.501Z,19.17
2022-09-05T00:41:34.187Z,19.30
2022-09-05T00:44:04.096Z,19.18
2022-09-05T00:46:38.050Z,19.12
2022-09-05T00:49:21.331Z,19.15
2022-09-05T00:51:56.218Z,19.03
2022-09-05T00:54:45.540Z,19.10
2022-09-05T00:57:50.910Z,19.09
2022-09-05T01:00:22.782Z,18.83
2022-09-05T01:03:28.656Z,18.99
2022-09-05T01:06:17.362Z,18.94
2022-09-05T01:09:22.260Z,18.95
2022-09-05T01:12:03.769Z,18.91
2022-09-05T01:14:51.659Z,18.90
2022-09-05T01:17:34.824Z,18.57
2022-09-05T01:20:31.524Z,18.82
2022-09-05T01:23:39.979Z,18.81
2022-09-05T01:26:48.127Z,18.77
2022-09-05T01:29:26.585Z,18.69
2022-09-05T01:32:15.354Z,18.39
2022-09-05T01:35:02.545Z,18.63
2022-09-05T01:37:39.673Z,18.67
2022-09-05T01:40:25.198Z,18.59
2022-09-05T01:43:11.777Z,18.48
2022-09-05T01:45:52.123Z,18.31
2022-09-05T01:48:35.093Z,18.32
2022-09-05T01:51:29.236Z,18.31
2022-09-05T01:54:24.379Z,18.21
2022-09-05T01:57:16.137Z,18.04
2022-09-05T01:59:56.857Z,18.08
2022-09-05T02:02:50.586Z,18.02
2022-09-05T02:05:49.167Z,18.28
2022-09-05T02:08:41.738Z,18.13
2022-09-05T02:11:13.577Z,18.05
2022-09-05T02:13:57.440Z,18.09
2022-09-05T02:16:34.152Z,18.09
2022-09-05T02:19:14.847Z,18.12
2022-09-05T02:21:57.490Z,18.03
2022-09-05T02:24:37.182Z,18.04
2022-09-05T02:27:48.924Z,17.89
2022-09-05T02:30:19.716Z,17.96
2022-09-05T02:33:03.251Z,17.81
2022-09-05T02:35:46.929Z,17.98
2022-09-05T02:40:37.661Z,17.93
2022-09-05T02:45:12.792Z,17.62
2022-09-05T02:45:24.309Z,17.96
2022-09-05T02:47:15.976Z,17.98
2022-09-05T02:52:24.702Z,17.91
2022-09-05T02:57:39.225Z,17.80
2022-09-05T02:57:42.130Z,17.94
2022-09-05T02:59:37.130Z,17.91
2022-09-05T03:02:26.219Z,17.89
2022-09-05T03:05:07.709Z,17.89
2022-09-05T03:08:14.419Z,17.78
2022-09-05T03:11:44.904Z,17.89
2022-09-05T03:15:24.303Z,17.89
2022-09-05T03:18:34.315Z,17.66
2022-09-05T03:21:41.425Z,17.72
2022-09-05T03:24:56.043Z,17.65
2022-09-05T03:28:25.055Z,17.76
2022-09-05T03:31:22.197Z,17.66
2022-09-05T03:34:36.256Z,17.66
2022-09-05T03:37:47.024Z,17.78
2022-09-05T03:40:58.305Z,17.78
2022-09-05T03:44:04.860Z,17.70
2022-09-05T03:47:14.817Z,17.67
2022-09-05T03:57:04.295Z,17.70
2022-09-05T03:57:14.939Z,17.54
2022-09-05T03:57:32.288Z,17.69
2022-09-05T04:00:09.654Z,17.68
2022-09-05T04:07:01.985Z,17.50
2022-09-05T04:08:16.079Z,17.53
2022-09-05T04:08:47.997Z,17.58
2022-09-05T04:11:31.819Z,17.56
2022-09-05T04:14:06.298Z,17.56
2022-09-05T04:16:49.851Z,17.50
2022-09-05T04:19:29.427Z,17.53
2022-09-05T04:22:10.310Z,17.45
2022-09-05T04:24:46.515Z,17.28
2022-09-05T04:27:36.812Z,17.47
2022-09-05T04:30:39.561Z,17.30
2022-09-05T04:33:23.410Z,17.47
2022-09-05T04:36:24.968Z,17.22
2022-09-05T04:39:24.651Z,17.31
2022-09-05T04:41:56.662Z,17.47
2022-09-05T04:44:31.653Z,17.36
2022-09-05T04:47:09.848Z,17.22
2022-09-05T04:49:52.822Z,17.09
2022-09-05T04:53:10.340Z,17.48
2022-09-05T04:55:50.833Z,17.33
2022-09-05T05:00:06.217Z,17.27
2022-09-05T05:06:01.409Z,17.34
2022-09-05T05:06:23.804Z,17.44
2022-09-05T05:07:18.384Z,17.46
2022-09-05T05:10:22.108Z,17.27
2022-09-05T05:17:56.908Z,17.27
2022-09-05T05:18:12.507Z,17.58
2022-09-05T05:18:59.987Z,17.64
2022-09-05T05:21:37.640Z,17.63
2022-09-05T05:24:14.295Z,17.58
2022-09-05T05:26:57.897Z,17.77
2022-09-05T05:29:34.615Z,17.79
2022-09-05T05:32:07.989Z,17.70
2022-09-05T05:34:42.533Z,17.94
2022-09-05T05:37:22.122Z,18.03
2022-09-05T05:40:00.964Z,17.96
2022-09-05T05:42:29.267Z,18.17
2022-09-05T05:44:59.837Z,17.98
2022-09-05T05:47:32.776Z,18.31
2022-09-05T05:50:11.412Z,18.30
2022-09-05T05:53:30.400Z,18.47
2022-09-05T05:56:40.302Z,18.45
2022-09-05T05:59:56.439Z,18.65
2022-09-05T06:03:33.705Z,18.77
2022-09-05T06:06:33.096Z,18.84
2022-09-05T06:14:47.942Z,18.97
2022-09-05T06:15:05.587Z,19.16
2022-09-05T06:17:05.486Z,19.27
2022-09-05T06:22:04.172Z,19.43
2022-09-05T06:24:02.048Z,19.58
2022-09-05T06:27:21.234Z,19.77
2022-09-05T06:30:00.949Z,19.82
2022-09-05T06:32:56.703Z,19.93
2022-09-05T06:35:38.436Z,20.23
2022-09-05T06:38:29.005Z,20.37
2022-09-05T06:41:20.751Z,20.47
2022-09-05T06:44:31.081Z,20.66
2022-09-05T06:47:24.217Z,20.72
2022-09-05T06:50:26.642Z,21.12
2022-09-05T06:53:44.741Z,21.27
2022-09-05T06:56:39.301Z,21.75
2022-09-05T06:59:59.067Z,21.95
2022-09-05T07:02:59.259Z,22.09
2022-09-05T07:05:42.853Z,21.98
2022-09-05T07:08:36.066Z,22.32
2022-09-05T07:11:16.608Z,22.43
2022-09-05T07:13:57.690Z,22.51
2022-09-05T07:16:41.895Z,22.28
2022-09-05T07:19:34.850Z,22.64
2022-09-05T07:22:46.700Z,22.71
2022-09-05T07:25:26.231Z,22.56
2022-09-05T07:28:29.077Z,22.64
2022-09-05T07:30:51.899Z,23.03
2022-09-05T07:33:28.247Z,23.02
2022-09-05T07:36:04.969Z,23.24
2022-09-05T07:38:52.309Z,23.46
2022-09-05T07:41:26.868Z,23.60
2022-09-05T07:44:00.268Z,24.25
2022-09-05T07:46:33.529Z,24.76
2022-09-05T07:49:07.223Z,25.07
2022-09-05T07:56:49.625Z,25.69
2022-09-05T07:57:06.383Z,26.09
2022-09-05T07:57:31.622Z,26.42
2022-09-05T08:00:25.976Z,26.37
2022-09-05T08:03:01.891Z,26.35
2022-09-05T08:05:42.344Z,26.43
2022-09-05T08:08:15.172Z,26.52
2022-09-05T08:11:22.019Z,26.62
2022-09-05T08:14:38.346Z,27.10
2022-09-05T08:16:46.966Z,27.20
2022-09-05T08:19:54.293Z,27.45
2022-09-05T08:22:35.723Z,27.66
2022-09-05T08:25:15.407Z,28.07
2022-09-05T08:28:01.918Z,28.28
2022-09-05T08:30:33.872Z,28.73
2022-09-05T08:33:11.378Z,28.95
2022-09-05T08:35:45.318Z,29.31
2022-09-05T08:38:17.319Z,29.73
2022-09-05T08:40:56.072Z,29.81
2022-09-05T08:46:38.031Z,30.07
2022-09-05T08:46:48.351Z,30.35
2022-09-05T08:49:46.505Z,30.25
2022-09-05T08:52:28.016Z,30.44
2022-09-05T08:55:10.426Z,30.33
2022-09-05T08:58:25.447Z,30.70
2022-09-05T09:01:04.791Z,31.00
2022-09-05T09:03:53.220Z,31.13
2022-09-05T09:06:58.015Z,31.54
2022-09-05T09:09:50.754Z,31.65
2022-09-05T09:13:05.408Z,31.59
2022-09-05T09:15:40.231Z,31.86
2022-09-05T09:18:16.312Z,32.15
2022-09-05T09:20:53.177Z,32.23
2022-09-05T09:23:44.837Z,31.95
2022-09-05T09:26:17.110Z,32.22
2022-09-05T09:28:53.814Z,32.31
2022-09-05T09:32:06.069Z,32.67
2022-09-05T09:35:21.338Z,32.62
2022-09-05T09:38:30.898Z,32.81
2022-09-05T09:41:33.182Z,32.91
2022-09-05T09:45:27.471Z,33.09
2022-09-05T09:48:55.974Z,33.18
2022-09-05T09:51:55.628Z,33.45
2022-09-05T09:55:46.335Z,33.84
2022-09-05T09:58:49.414Z,33.97
2022-09-05T10:01:36.056Z,33.93
2022-09-05T10:10:37.742Z,34.18
2022-09-05T10:10:55.125Z,34.11
2022-09-05T10:11:55.505Z,34.38
2022-09-05T10:15:15.142Z,34.50
2022-09-05T10:18:32.737Z,34.61
2022-09-05T10:21:24.746Z,34.93
2022-09-05T10:24:24.814Z,35.16
2022-09-05T10:27:36.920Z,35.24
2022-09-05T10:30:33.398Z,35.48
2022-09-05T10:35:16.997Z,35.59
2022-09-05T10:36:31.358Z,35.62
2022-09-05T10:39:19.072Z,35.70
2022-09-05T10:41:57.219Z,35.72
2022-09-05T10:44:40.463Z,35.73
2022-09-05T10:47:24.945Z,35.73
2022-09-05T10:50:05.447Z,35.89
2022-09-05T10:52:57.572Z,36.04
2022-09-05T10:55:31.216Z,36.33
2022-09-05T10:58:11.834Z,36.16
2022-09-05T11:02:28.058Z,36.14
2022-09-05T11:04:04.143Z,36.21
2022-09-05T11:06:53.809Z,36.59
2022-09-05T11:09:56.055Z,37.15
2022-09-05T11:12:41.447Z,37.09
2022-09-05T11:15:25.364Z,37.61
2022-09-05T11:17:58.852Z,37.64
2022-09-05T11:21:01.904Z,37.97
2022-09-05T11:23:40.120Z,37.71
2022-09-05T11:26:34.500Z,37.72
2022-09-05T11:29:08.886Z,37.54
2022-09-05T11:33:35.915Z,37.60
2022-09-05T11:39:52.514Z,37.86
2022-09-05T11:39:55.489Z,37.78
2022-09-05T11:42:12.501Z,37.50
2022-09-05T11:45:15.879Z,37.75
2022-09-05T11:48:18.880Z,37.85
2022-09-05T11:51:38.851Z,37.89
2022-09-05T11:55:03.493Z,38.12
2022-09-05T11:57:50.287Z,37.90
2022-09-05T12:00:31.515Z,38.27
2022-09-05T12:03:58.900Z,38.51
2022-09-05T12:07:15.585Z,38.48
2022-09-05T12:10:39.843Z,38.11
2022-09-05T12:13:21.767Z,38.04
2022-09-05T12:16:08.248Z,37.73
2022-09-05T12:18:54.221Z,37.11
2022-09-05T12:21:38.229Z,37.13
2022-09-05T12:25:25.460Z,36.67
2022-09-05T12:27:43.795Z,36.54
2022-09-05T12:30:06.446Z,36.34
2022-09-05T12:33:52.385Z,36.15
2022-09-05T12:36:10.066Z,36.45
2022-09-05T12:40:55.325Z,36.50
2022-09-05T12:42:15.103Z,36.66
2022-09-05T12:45:03.013Z,36.55
2022-09-05T12:47:44.487Z,36.54
2022-09-05T12:50:18.027Z,35.97
2022-09-05T12:52:51.457Z,35.71
2022-09-05T12:55:27.753Z,35.42
2022-09-05T13:01:41.986Z,35.50
2022-09-05T13:03:12.926Z,35.46
2022-09-05T13:04:16.682Z,35.66
2022-09-05T13:06:47.008Z,35.53
2022-09-05T13:09:55.348Z,35.58
2022-09-05T13:14:56.583Z,35.71
2022-09-05T13:15:23.333Z,35.92
2022-09-05T13:18:02.886Z,36.01
2022-09-05T13:20:36.528Z,35.92
2022-09-05T13:23:18.811Z,36.32
2022-09-05T13:25:57.950Z,36.61
2022-09-05T13:28:35.299Z,36.88
2022-09-05T13:37:55.710Z,36.95
2022-09-05T13:38:05.802Z,37.18
2022-09-05T13:38:10.024Z,37.36
2022-09-05T13:39:55.913Z,37.17
2022-09-05T13:42:30.388Z,37.07
2022-09-05T13:45:01.526Z,37.21
2022-09-05T13:48:02.346Z,37.31
2022-09-05T13:50:38.093Z,37.21
2022-09-05T13:53:16.670Z,36.89
2022-09-05T13:55:54.807Z,37.04
2022-09-05T13:58:39.858Z,36.92
2022-09-05T14:02:24.657Z,36.81
2022-09-05T14:05:19.543Z,36.88
2022-09-05T14:11:57.180Z,36.84
2022-09-05T14:17:54.191Z,36.76
2022-09-05T14:20:43.237Z,36.90
2022-09-05T14:23:15.488Z,36.97
2022-09-05T14:25:52.357Z,37.24
2022-09-05T14:28:27.764Z,37.42
2022-09-05T14:33:16.759Z,37.48
2022-09-05T14:37:48.279Z,37.71
2022-09-05T14:37:59.994Z,37.83
2022-09-05T14:41:19.084Z,37.78
2022-09-05T14:44:21.250Z,37.49
2022-09-05T14:47:35.425Z,37.24
2022-09-05T14:50:39.285Z,36.98
2022-09-05T14:57:41.372Z,36.46
2022-09-05T15:02:51.034Z,36.30
2022-09-05T15:02:53.942Z,36.00
2022-09-05T15:05:38.801Z,35.86
2022-09-05T15:09:11.439Z,35.61
2022-09-05T15:12:18.911Z,35.53
2022-09-05T15:13:58.800Z,35.48
2022-09-05T15:16:29.081Z,35.27
2022-09-05T15:18:58.429Z,35.30
2022-09-05T15:21:33.707Z,35.04
2022-09-05T15:24:21.389Z,34.90
2022-09-05T15:26:53.781Z,34.91
2022-09-05T15:29:25.646Z,34.60
2022-09-05T15:32:13.966Z,34.79
2022-09-05T15:34:42.481Z,34.91
2022-09-05T15:37:26.624Z,34.92
2022-09-05T15:40:23.807Z,35.17
2022-09-05T15:42:56.621Z,35.34
2022-09-05T15:45:29.060Z,35.04
2022-09-05T15:48:12.807Z,34.41
2022-09-05T15:50:50.345Z,33.54
2022-09-05T15:53:25.880Z,32.97
2022-09-05T15:56:01.021Z,32.29
2022-09-05T15:58:52.675Z,31.31
2022-09-05T16:01:45.070Z,30.35
2022-09-05T16:08:45.786Z,29.62
2022-09-05T16:10:37.383Z,29.24
2022-09-05T16:10:41.442Z,29.29
2022-09-05T16:13:13.906Z,29.48
2022-09-05T16:20:04.530Z,29.58
2022-09-05T16:23:18.956Z,29.84
2022-09-05T16:23:29.340Z,29.85
2022-09-05T16:24:38.617Z,29.80
2022-09-05T16:27:54.388Z,29.46
2022-09-05T16:30:26.313Z,29.59
2022-09-05T16:33:01.591Z,29.64
2022-09-05T16:35:33.965Z,29.78
2022-09-05T16:38:48.641Z,29.62
2022-09-05T16:41:13.268Z,29.41
2022-09-05T16:43:47.712Z,28.86
2022-09-05T16:46:22.935Z,28.43
2022-09-05T16:48:58.729Z,27.97
2022-09-05T16:51:35.687Z,27.84
2022-09-05T16:54:13.401Z,27.78
2022-09-05T16:56:47.767Z,27.70
2022-09-05T16:59:19.234Z,27.50
2022-09-05T17:02:07.259Z,27.42
2022-09-05T17:05:04.619Z,27.43
2022-09-05T17:08:10.332Z,27.48
2022-09-05T17:10:57.516Z,27.51
2022-09-05T17:13:44.270Z,27.42
2022-09-05T17:16:21.826Z,27.33
2022-09-05T17:18:52.633Z,27.28
2022-09-05T17:21:51.426Z,27.27
2022-09-05T17:29:20.993Z,27.34
2022-09-05T17:29:35.094Z,27.23
2022-09-05T17:33:00.289Z,27.26
2022-09-05T17:35:55.041Z,26.83
2022-09-05T17:39:21.074Z,26.14
2022-09-05T17:42:29.198Z,25.36
2022-09-05T17:45:13.944Z,24.35
2022-09-05T17:47:49.987Z,24.17
2022-09-05T17:50:22.449Z,23.97
2022-09-05T17:53:26.800Z,23.65
2022-09-05T17:56:14.113Z,23.41
2022-09-05T17:59:07.137Z,23.35
2022-09-05T18:01:36.670Z,23.20
2022-09-05T18:04:16.496Z,23.04
2022-09-05T18:07:00.711Z,22.41
2022-09-05T18:10:12.907Z,22.27
2022-09-05T18:16:13.282Z,21.83
2022-09-05T18:19:28.217Z,21.68
2022-09-05T18:21:53.119Z,21.63
2022-09-05T18:24:33.299Z,21.99
2022-09-05T18:30:11.238Z,21.54
2022-09-05T18:32:45.214Z,21.84
2022-09-05T18:35:37.656Z,22.14
2022-09-05T18:38:19.197Z,22.13
2022-09-05T18:41:21.723Z,21.72
2022-09-05T18:44:13.596Z,22.07
2022-09-05T18:46:47.256Z,21.66
2022-09-05T18:50:21.591Z,22.01
2022-09-05T18:52:23.236Z,21.89
2022-09-05T18:56:08.949Z,21.22
2022-09-05T18:57:51.976Z,21.24
2022-09-05T19:00:44.725Z,21.30
2022-09-05T19:03:24.916Z,21.59
2022-09-05T19:06:35.215Z,21.22
2022-09-05T19:08:56.088Z,21.38
2022-09-05T19:11:30.813Z,21.22
2022-09-05T19:14:26.273Z,20.93
2022-09-05T19:17:07.431Z,21.09
2022-09-05T19:20:31.766Z,20.75
2022-09-05T19:23:11.729Z,20.78
2022-09-05T19:25:44.025Z,20.86
2022-09-05T19:35:33.282Z,20.89
2022-09-05T19:37:08.355Z,20.84
2022-09-05T19:37:09.791Z,20.57
2022-09-05T19:43:48.400Z,20.82
2022-09-05T19:47:35.923Z,20.82
2022-09-05T19:47:51.475Z,20.70
2022-09-05T19:48:26.675Z,20.66
2022-09-05T19:50:57.599Z,20.81
2022-09-05T19:53:26.216Z,20.81
2022-09-05T19:55:56.160Z,21.08
2022-09-05T19:58:25.700Z,20.77
2022-09-05T20:01:08.399Z,20.32
2022-09-05T20:03:44.596Z,20.52
2022-09-05T20:06:28.816Z,20.55
2022-09-05T20:09:15.358Z,20.61
2022-09-05T20:11:50.046Z,20.83
2022-09-05T20:14:23.013Z,20.92
2022-09-05T20:16:54.342Z,20.71
2022-09-05T20:19:29.021Z,20.51
2022-09-05T20:22:21.208Z,20.02
2022-09-05T20:24:50.533Z,20.30
2022-09-05T20:27:27.386Z,20.00
2022-09-05T20:30:00.393Z,20.14
2022-09-05T20:32:39.543Z,20.13
2022-09-05T20:43:07.605Z,20.35
2022-09-05T20:43:22.467Z,20.38
2022-09-05T20:43:23.803Z,20.34
2022-09-05T20:44:22.656Z,20.16
2022-09-05T20:49:27.387Z,20.37
2022-09-05T20:54:19.758Z,20.39
2022-09-05T20:54:21.531Z,20.49
2022-09-05T20:55:42.441Z,20.50
2022-09-05T20:58:15.002Z,20.23
2022-09-05T21:01:21.014Z,20.02
2022-09-05T21:03:45.326Z,20.43
2022-09-05T21:06:22.635Z,19.98
2022-09-05T21:08:56.030Z,19.80
2022-09-05T21:11:33.781Z,20.38
2022-09-05T21:14:05.063Z,20.13
2022-09-05T21:16:49.387Z,20.05
2022-09-05T21:19:26.596Z,20.20
2022-09-05T21:22:06.695Z,20.18
2022-09-05T21:24:35.559Z,19.94
2022-09-05T21:27:22.587Z,19.96
2022-09-05T21:29:58.833Z,20.24
2022-09-05T21:32:38.127Z,19.93
2022-09-05T21:35:33.535Z,20.08
2022-09-05T21:38:01.590Z,20.04
2022-09-05T21:40:30.150Z,20.06
2022-09-05T21:46:38.650Z,19.86
2022-09-05T21:47:40.085Z,20.22
2022-09-05T21:48:39.374Z,20.21
2022-09-05T21:51:10.310Z,20.09
2022-09-05T21:58:55.224Z,20.22
2022-09-05T21:59:27.729Z,20.01
2022-09-05T21:59:40.085Z,20.39
2022-09-05T22:02:16.819Z,20.50
2022-09-05T22:04:47.133Z,20.62
2022-09-05T22:07:31.924Z,20.27
2022-09-05T22:10:03.485Z,20.17
2022-09-05T22:12:36.770Z,20.24
2022-09-05T22:15:26.411Z,20.13
2022-09-05T22:18:17.439Z,19.40
2022-09-05T22:21:31.634Z,20.04
2022-09-05T22:23:44.356Z,20.21
2022-09-05T22:26:13.637Z,20.53
2022-09-05T22:28:48.775Z,20.45
2022-09-05T22:31:17.592Z,19.65
2022-09-05T22:33:46.352Z,20.47
2022-09-05T22:36:20.856Z,19.55
2022-09-05T22:38:49.196Z,19.95
2022-09-05T22:41:17.622Z,19.72
2022-09-05T22:43:58.619Z,20.45
2022-09-05T22:46:27.033Z,19.99
2022-09-05T22:48:55.447Z,20.05
2022-09-05T22:51:25.172Z,19.88
2022-09-05T22:53:53.469Z,18.92
2022-09-05T22:56:32.312Z,19.34
2022-09-05T22:59:00.993Z,19.98
2022-09-05T23:01:29.386Z,20.12
2022-09-05T23:03:57.808Z,20.30
2022-09-05T23:06:27.689Z,20.42
2022-09-05T23:08:56.029Z,20.36
2022-09-05T23:11:24.482Z,20.26
2022-09-05T23:13:52.928Z,20.11
2022-09-05T23:16:21.686Z,20.28
2022-09-05T23:18:50.042Z,20.38
2022-09-05T23:21:19.812Z,20.43
2022-09-05T23:23:49.518Z,20.38
2022-09-05T23:26:18.266Z,20.48
2022-09-05T23:28:46.678Z,20.25
2022-09-05T23:31:15.113Z,20.48
2022-09-05T23:33:43.672Z,20.29
2022-09-05T23:36:14.641Z,20.32
2022-09-05T23:38:43.808Z,20.41
2022-09-05T23:41:15.850Z,20.43
2022-09-05T23:43:44.624Z,20.13
2022-09-05T23:46:13.366Z,20.39
2022-09-05T23:48:42.426Z,19.89
2022-09-05T23:51:12.720Z,20.10
2022-09-05T23:53:41.723Z,20.17
2022-09-05T23:56:12.154Z,20.22
2022-09-05T23:58:42.022Z,20.19
